Frej — SBPT — position and weather

sailwx.info

Track history (hours):
 
Tides and Currents Weather Stations Pressure Air Temp Water Temp Dewpoint Dewpoint Depression Visibility Wind Speed Wind Dir Waves Ship Positions

Frej

Last reported at 2017-Jun-26 06:00 UTC. Time now 2017-Jun-26 07:10 UTC.
Position N 65°36' E 022°12'.

Length 108 m; draft 7.2 m.

Type: Other ship. MMSI: 265068000.

Wind from 020

Air temperature 11.8 ° C

Date/timePositionNaut miles runAvg speedWind from/ knotsBaromVisibWave heightAir tempDewpointWater temp
2017-Jun-26 06:00N 65°36' E 022°12'0 0.0 020 11.8
2017-Jun-26 05:00N 65°36' E 022°12'0 0.0 130 / 2 11.0
2017-Jun-26 04:00N 65°36' E 022°12'0 0.0 140 / 6 10.3
2017-Jun-26 03:00N 65°36' E 022°12'0 0.0 130 / 4 10.3
2017-Jun-26 01:00N 65°36' E 022°12'0 0.0 130 / 8 9.8
2017-Jun-26 00:00N 65°36' E 022°12'0 0.0 120 / 8 9.5
2017-Jun-25 23:00N 65°36' E 022°12'0 0.0 120 / 8 9.8
2017-Jun-25 21:00N 65°36' E 022°12'0 0.0 130 / 10 10.0
2017-Jun-25 20:00N 65°36' E 022°12'0 0.0 140 / 6 10.4
2017-Jun-25 18:00N 65°36' E 022°12'0 0.0 130 / 10 10.7
2017-Jun-25 14:00N 65°36' E 022°12'0 0.0 100 / 12 11.0
2017-Jun-25 13:00N 65°36' E 022°12'0 0.0 070 / 2 10.8
2017-Jun-25 12:00N 65°36' E 022°12'0 0.0 110 / 14 10.6
2017-Jun-25 09:00N 65°36' E 022°12'0 0.0 120 / 4 12.5
2017-Jun-25 07:00N 65°36' E 022°12'0 0.0 100 / 8 11.9
2017-Jun-25 06:00N 65°36' E 022°12'0 0.0 100 / 6 12.2
2017-Jun-25 03:00N 65°36' E 022°12'0 0.0 060 / 8 11.3
2017-Jun-25 02:00N 65°36' E 022°12'0 0.0 070 / 6 11.2
2017-Jun-25 01:00N 65°36' E 022°12'0 0.0 060 / 8 11.0
2017-Jun-25 00:00N 65°36' E 022°12'0 0.0 080 / 6 10.7
2017-Jun-24 23:00N 65°36' E 022°12'0 0.0 080 / 8 10.6
2017-Jun-24 22:00N 65°36' E 022°12'0 0.0 090 / 8 10.4
2017-Jun-24 21:00N 65°36' E 022°12'2 2.1 060 / 6 10.7
2017-Jun-24 20:08N 65°34' E 022°10'213.4
2017-Jun-24 20:00N 65°36' E 022°12'211.4 120 / 2 11.0
2017-Jun-24 19:50N 65°34' E 022°10'0 0.0
2017-Jun-24 19:20N 65°34' E 022°10'2 5.5
2017-Jun-24 19:00N 65°36' E 022°12'2 2.8 120 / 6 10.7
2017-Jun-24 18:20N 65°34' E 022°10'2 5.5
2017-Jun-24 18:00N 65°36' E 022°12'2154.4 120 / 8 10.5
2017-Jun-24 17:59N 65°34' E 022°10'0 0.0
2017-Jun-24 17:29N 65°34' E 022°10'2 3.8
2017-Jun-24 17:00N 65°36' E 022°12'2150.9 150 / 6 10.6
2017-Jun-24 16:59N 65°34' E 022°10'2 1.9
2017-Jun-24 16:00N 65°36' E 022°12'2 7.0 130 / 10 10.7
2017-Jun-24 15:44N 65°34' E 022°10'0 0.0
2017-Jun-24 15:29N 65°34' E 022°10'2 3.8
2017-Jun-24 15:00N 65°36' E 022°12'2 7.0 180 / 8 10.2
2017-Jun-24 14:44N 65°34' E 022°10'0 0.0
2017-Jun-24 14:26N 65°34' E 022°10'2 4.2
2017-Jun-24 14:00N 65°36' E 022°12'0 0.0 190 / 6 10.2
2017-Jun-24 13:00N 65°36' E 022°12'2 5.1 150 / 8 10.3
2017-Jun-24 12:38N 65°34' E 022°10'0 0.0
2017-Jun-24 12:17N 65°34' E 022°10'2 6.4
2017-Jun-24 12:00N 65°36' E 022°12'211.4 170 / 10 10.0
2017-Jun-24 11:50N 65°34' E 022°10'0 0.0
2017-Jun-24 11:23N 65°34' E 022°10'2 4.8
2017-Jun-24 11:00N 65°36' E 022°12'0 0.0 170 / 12 10.2
2017-Jun-24 10:00N 65°36' E 022°12'0 0.0 190 / 14 10.2
2017-Jun-24 09:00N 65°36' E 022°12'0 0.0 180 / 14 10.5
2017-Jun-24 07:00N 65°36' E 022°12'0 0.0 170 / 14 10.1
2017-Jun-24 06:00N 65°36' E 022°12'0 0.0 170 / 10 10.1
2017-Jun-24 03:00N 65°36' E 022°12'0 0.0 170 / 10 10.1
2017-Jun-24 00:00N 65°36' E 022°12'0 0.0 170 / 6 9.8
2017-Jun-23 23:00N 65°36' E 022°12'0 0.0 180 / 6 9.8
2017-Jun-23 21:00N 65°36' E 022°12'0 0.0 180 / 6 9.9
2017-Jun-23 20:00N 65°36' E 022°12'0 0.0 190 / 8 9.8
2017-Jun-23 19:00N 65°36' E 022°12'0 0.0 190 / 8 10.0
2017-Jun-23 18:00N 65°36' E 022°12'0 0.0 200 / 10 9.9
2017-Jun-23 17:00N 65°36' E 022°12'0 0.0 210 / 12 10.0
2017-Jun-23 16:00N 65°36' E 022°12'0 0.0 190 / 12 10.9
2017-Jun-23 15:00N 65°36' E 022°12'0 0.0 170 / 8 10.8
2017-Jun-23 14:00N 65°36' E 022°12'0 0.0 190 / 10 10.3
2017-Jun-23 13:00N 65°36' E 022°12'0 0.0 230 / 4 11.1
2017-Jun-23 12:00N 65°36' E 022°12'0 0.0 050 / 4 11.6
2017-Jun-23 09:00N 65°36' E 022°12'0 0.0 310 / 10 9.5
2017-Jun-23 08:00N 65°36' E 022°12'0 0.0 020 / 10 9.0
2017-Jun-23 06:00N 65°36' E 022°12'0 0.0 340 / 14 7.6
2017-Jun-23 05:00N 65°36' E 022°12'0 0.0 350 / 6 7.6
2017-Jun-23 03:00N 65°36' E 022°12'0 0.0 340 / 10 7.1
2017-Jun-23 00:00N 65°36' E 022°12'0 0.0 020 / 10 7.5
2017-Jun-22 21:00N 65°36' E 022°12'0 0.0 340 / 8 8.6
2017-Jun-22 20:00N 65°36' E 022°12'0 0.0 360 / 10 8.8
2017-Jun-22 19:00N 65°36' E 022°12'0 0.0 350 / 14 9.0
2017-Jun-22 18:00N 65°36' E 022°12'0 0.0 010 / 12 9.0
2017-Jun-22 16:00N 65°36' E 022°12'0 0.0 020 / 10 9.1
2017-Jun-22 15:00N 65°36' E 022°12'0 0.0 350 / 17 9.0
2017-Jun-22 14:00N 65°36' E 022°12'0 0.0 350 / 17 8.9
2017-Jun-22 13:00N 65°36' E 022°12'0 0.0 350 / 10 8.1
2017-Jun-22 12:00N 65°36' E 022°12'0 0.0 010 / 16 8.5
2017-Jun-22 11:00N 65°36' E 022°12'0 0.0 010 / 8 8.7
2017-Jun-22 10:00N 65°36' E 022°12'0 0.0 020 / 19 8.1
2017-Jun-22 09:00N 65°36' E 022°12'0 0.0 7.8
2017-Jun-22 08:00N 65°36' E 022°12'0 0.0 350 / 12 7.3
2017-Jun-22 07:00N 65°36' E 022°12'0 0.0 010 / 14 6.4
2017-Jun-22 06:00N 65°36' E 022°12'0 0.0 340 / 12 5.9
2017-Jun-22 05:00N 65°36' E 022°12'0 0.0 340 / 14 5.8
2017-Jun-22 03:00N 65°36' E 022°12'0 0.0 330 / 14 5.3
2017-Jun-22 01:00N 65°36' E 022°12'0 0.0 340 / 16 5.6
2017-Jun-22 00:00N 65°36' E 022°12'0 0.0 350 / 16 6.0
2017-Jun-21 21:00N 65°36' E 022°12'0 0.0 340 / 10 8.8
2017-Jun-21 18:00N 65°36' E 022°12'0 0.0 030 / 10 12.0
2017-Jun-21 15:00N 65°36' E 022°12'0 0.0 350 / 12 13.1
2017-Jun-21 14:00N 65°36' E 022°12'0 0.0 320 / 4 13.5
2017-Jun-21 13:00N 65°36' E 022°12'0 0.0 190 / 4 11.4
2017-Jun-21 12:00N 65°36' E 022°12'0 0.0 240 / 4 11.3
2017-Jun-21 11:00N 65°36' E 022°12'0 0.0 060 / 2 10.5
2017-Jun-21 10:00N 65°36' E 022°12'0 0.0 020 / 10 11.7
2017-Jun-21 09:00N 65°36' E 022°12'0 0.0 330 / 8 10.9
2017-Jun-21 07:00N 65°36' E 022°12'0 0.0 360 / 6 9.1
2017-Jun-21 06:00N 65°36' E 022°12'0 0.0 010 / 14 8.4
2017-Jun-21 05:00N 65°36' E 022°12'0 0.0 020 / 12 7.9
2017-Jun-21 04:00N 65°36' E 022°12'0 0.0 8.2
2017-Jun-21 03:00N 65°36' E 022°12'0 0.0 010 / 10 7.9
2017-Jun-21 01:00N 65°36' E 022°12'0 0.0 030 / 8 9.9
2017-Jun-21 00:00N 65°36' E 022°12'0 0.0 360 / 8 10.3
2017-Jun-20 23:00N 65°36' E 022°12'0 0.0 350 / 10 10.2
2017-Jun-20 21:00N 65°36' E 022°12'0 0.0 050 / 10 11.3
2017-Jun-20 20:00N 65°36' E 022°12'0 0.0 060 / 6 14.3
2017-Jun-20 18:00N 65°36' E 022°12'0 0.0 040 / 8 15.5
2017-Jun-20 15:00N 65°36' E 022°12'0 0.0 350 / 14 16.0
2017-Jun-20 13:00N 65°36' E 022°12'0 0.0 310 / 17 16.0
2017-Jun-20 12:00N 65°36' E 022°12'0 0.0 170 / 10 15.6
2017-Jun-20 10:00N 65°36' E 022°12'0 0.0 340 / 6 16.1
2017-Jun-20 09:00N 65°36' E 022°12'0 0.0 330 / 6 15.5
2017-Jun-20 08:00N 65°36' E 022°12'0 0.0 270 / 6 14.3
2017-Jun-20 06:00N 65°36' E 022°12'0 0.0 300 / 8 13.1
2017-Jun-20 05:00N 65°36' E 022°12'0 0.0 320 / 8 12.3
2017-Jun-20 04:00N 65°36' E 022°12'0 0.0 320 / 12 11.9
2017-Jun-20 03:00N 65°36' E 022°12'0 0.0 320 / 12 11.8
2017-Jun-20 02:00N 65°36' E 022°12'0 0.0 300 / 10 11.6
2017-Jun-20 01:00N 65°36' E 022°12'0 0.0 310 / 10 11.8
2017-Jun-20 00:00N 65°36' E 022°12'0 0.0 310 / 8 12.6
2017-Jun-19 23:00N 65°36' E 022°12'0 0.0 300 / 4 12.9
2017-Jun-19 22:00N 65°36' E 022°12'0 0.0 300 / 10 14.0
2017-Jun-19 21:00N 65°36' E 022°12'0 0.0 290 / 6 15.1
2017-Jun-19 20:00N 65°36' E 022°12'0 0.0 300 / 8 16.4
2017-Jun-19 19:00N 65°36' E 022°12'0 0.0 300 / 14 17.4
2017-Jun-19 18:00N 65°36' E 022°12'0 0.0 310 / 19 17.8
2017-Jun-19 17:00N 65°36' E 022°12'0 0.0 320 / 16 17.7
2017-Jun-19 16:00N 65°36' E 022°12'0 0.0 300 / 16 18.6
2017-Jun-19 15:00N 65°36' E 022°12'0 0.0 300 / 12 17.7
2017-Jun-19 14:00N 65°36' E 022°12'0 0.0 300 / 10 18.1
2017-Jun-19 13:00N 65°36' E 022°12'0 0.0 300 / 17 17.0
2017-Jun-19 12:00N 65°36' E 022°12'0 0.0 300 / 12 17.8
2017-Jun-19 11:00N 65°36' E 022°12'0 0.0 270 / 4 15.4
2017-Jun-19 10:00N 65°36' E 022°12'0 0.0 330 / 14 16.7
2017-Jun-19 09:00N 65°36' E 022°12'0 0.0 310 / 14 16.3
2017-Jun-19 08:00N 65°36' E 022°12'0 0.0 310 / 14 15.6
2017-Jun-19 07:00N 65°36' E 022°12'0 0.0 300 / 16 14.6
2017-Jun-18 22:00N 65°36' E 022°12'0 0.0 300 / 21 14.5
2017-Jun-18 21:00N 65°36' E 022°12'0 0.0 300 / 14 15.6
2017-Jun-18 20:00N 65°36' E 022°12'0 0.0 300 / 14 16.4
2017-Jun-18 19:00N 65°36' E 022°12'0 0.0 300 / 17 17.7
2017-Jun-18 18:00N 65°36' E 022°12'0 0.0 300 / 8 18.0
2017-Jun-18 17:00N 65°36' E 022°12'0 0.0 310 / 17 17.8
2017-Jun-18 16:00N 65°36' E 022°12'0 0.0 300 / 14 18.4
2017-Jun-18 15:00N 65°36' E 022°12'0 0.0 310 / 12 18.9
2017-Jun-18 14:00N 65°36' E 022°12'0 0.0 320 / 14 18.5
2017-Jun-18 13:00N 65°36' E 022°12'0 0.0 310 / 16 18.0
2017-Jun-18 12:00N 65°36' E 022°12'0 0.0 310 / 16 17.7
2017-Jun-18 11:00N 65°36' E 022°12'0 0.0 320 / 19 16.4
2017-Jun-18 10:00N 65°36' E 022°12'0 0.0 300 / 8 16.1
2017-Jun-18 09:00N 65°36' E 022°12'0 0.0 290 / 14 16.1
2017-Jun-18 08:00N 65°36' E 022°12'0 0.0 310 / 10 15.7
2017-Jun-18 07:00N 65°36' E 022°12'0 0.0 300 / 16 14.8
2017-Jun-18 06:00N 65°36' E 022°12'0 0.0 280 / 8 13.0
2017-Jun-18 05:00N 65°36' E 022°12'0 0.0 270 / 6 12.7
2017-Jun-18 04:00N 65°36' E 022°12'0 0.0 300 / 14 13.1
2017-Jun-18 03:00N 65°36' E 022°12'0 0.0 270 / 10 13.9
2017-Jun-18 02:00N 65°36' E 022°12'0 0.0 230 / 4 14.6
2017-Jun-18 01:00N 65°36' E 022°12'0 0.0 250 / 6 14.7
2017-Jun-18 00:00N 65°36' E 022°12'0 0.0 220 / 6 14.8
2017-Jun-17 23:00N 65°36' E 022°12'0 0.0 220 / 6 15.1
2017-Jun-17 22:00N 65°36' E 022°12'0 0.0 210 / 8 15.0
2017-Jun-17 21:00N 65°36' E 022°12'0 0.0 190 / 8 14.6
2017-Jun-17 20:00N 65°36' E 022°12'0 0.0 180 / 6 15.8
2017-Jun-17 19:00N 65°36' E 022°12'0 0.0 200 / 8 16.2
2017-Jun-17 18:00N 65°36' E 022°12'0 0.0 290 / 4 16.6
2017-Jun-17 17:00N 65°36' E 022°12'0 0.0 330 / 6 16.3
2017-Jun-17 16:00N 65°36' E 022°12'2 8.4 320 / 4 15.9
2017-Jun-17 15:46N 65°34' E 022°10'2 2.4
2017-Jun-17 15:00N 65°36' E 022°12'0 0.0 270 / 6 16.0
2017-Jun-17 14:00N 65°36' E 022°12'0 0.0 210 / 10 16.2
2017-Jun-17 13:00N 65°36' E 022°12'0 0.0 190 / 10 16.0
2017-Jun-17 12:00N 65°36' E 022°12'0 0.0 190 / 14 17.0
2017-Jun-17 11:00N 65°36' E 022°12'0 0.0 160 / 10 19.5
2017-Jun-17 10:00N 65°36' E 022°12'0 0.0 170 / 8 19.3
2017-Jun-17 09:00N 65°36' E 022°12'2 4.1 180 / 4 19.4
2017-Jun-17 08:32N 65°34' E 022°10'0 0.0
2017-Jun-17 08:08N 65°34' E 022°10'0 0.0
2017-Jun-17 07:53N 65°34' E 022°10'0 0.0
2017-Jun-17 07:26N 65°34' E 022°10'0 0.0
2017-Jun-17 06:20N 65°34' E 022°10'0 0.0
2017-Jun-17 05:56N 65°34' E 022°10'0 0.0
2017-Jun-17 05:26N 65°34' E 022°10'0 0.0
2017-Jun-17 04:59N 65°34' E 022°10'0 0.0
2017-Jun-17 04:26N 65°34' E 022°10'0 0.0
2017-Jun-17 02:14N 65°34' E 022°10'0 0.0
2017-Jun-17 01:59N 65°34' E 022°10'0 0.0
2017-Jun-17 01:29N 65°34' E 022°10'0 0.0
2017-Jun-17 00:50N 65°34' E 022°10'0 0.0
2017-Jun-17 00:20N 65°34' E 022°10'0 0.0
2017-Jun-16 23:59N 65°34' E 022°10'0 0.0
2017-Jun-16 23:29N 65°34' E 022°10'2 3.7
2017-Jun-16 23:00N 65°36' E 022°12'2948.5 160 / 2 15.9
2017-Jun-16 22:59N 65°34' E 022°10'0 0.0
2017-Jun-16 22:29N 65°34' E 022°10'2 3.7
2017-Jun-16 22:00N 65°36' E 022°12'2 3.1 340 / 4 15.5
2017-Jun-16 21:23N 65°34' E 022°10'2 4.6
2017-Jun-16 21:00N 65°36' E 022°12'0 0.0 180 / 8 15.7
2017-Jun-16 20:00N 65°36' E 022°12'2 2.8 180 / 8 16.2
2017-Jun-16 19:20N 65°34' E 022°10'2 5.3
2017-Jun-16 19:00N 65°36' E 022°12'0 0.0 180 / 10 16.3
2017-Jun-16 18:00N 65°36' E 022°12'2 6.1 180 / 10 17.1
2017-Jun-16 17:41N 65°34' E 022°10'0 0.0
2017-Jun-16 17:26N 65°34' E 022°10'2 4.1
2017-Jun-16 17:00N 65°36' E 022°12'2830.0 170 / 8 17.7
2017-Jun-16 16:59N 65°34' E 022°10'2 1.8
2017-Jun-16 16:00N 65°36' E 022°12'0 0.0 170 / 10 16.6
2017-Jun-16 15:00N 65°36' E 022°12'0 0.0 190 / 17 15.5
2017-Jun-16 14:00N 65°36' E 022°12'0 0.0 190 / 16 17.0
2017-Jun-16 13:00N 65°36' E 022°12'0 0.0 180 / 14 16.7
2017-Jun-16 12:00N 65°36' E 022°12'0 0.0 180 / 16 17.5
2017-Jun-16 11:00N 65°36' E 022°12'0 0.0 170 / 12 17.4
2017-Jun-16 10:00N 65°36' E 022°12'0 0.0 170 / 12 17.4
2017-Jun-16 09:00N 65°36' E 022°12'0 0.0 230 / 2 18.9
2017-Jun-16 06:00N 65°36' E 022°12'   300 / 6 16.3
Track history (hours):
 
Tides and Currents Weather Stations Pressure Air Temp Water Temp Dewpoint Dewpoint Depression Visibility Wind Speed Wind Dir Waves Ship Positions

Frej

Last reported at 2017-Jun-26 06:00 UTC. Time now 2017-Jun-26 07:10 UTC.
Position N 65°36' E 022°12'.

Length 108 m; draft 7.2 m.

Type: Other ship. MMSI: 265068000.

Wind from 020

Air temperature 11.8 ° C

Date/timePositionNaut miles runAvg speedWind from/ knotsBaromVisibWave heightAir tempDewpointWater temp
2017-Jun-26 06:00N 65°36' E 022°12'0 0.0 020 11.8
2017-Jun-26 05:00N 65°36' E 022°12'0 0.0 130 / 2 11.0
2017-Jun-26 04:00N 65°36' E 022°12'0 0.0 140 / 6 10.3
2017-Jun-26 03:00N 65°36' E 022°12'0 0.0 130 / 4 10.3
2017-Jun-26 01:00N 65°36' E 022°12'0 0.0 130 / 8 9.8
2017-Jun-26 00:00N 65°36' E 022°12'0 0.0 120 / 8 9.5
2017-Jun-25 23:00N 65°36' E 022°12'0 0.0 120 / 8 9.8
2017-Jun-25 21:00N 65°36' E 022°12'0 0.0 130 / 10 10.0
2017-Jun-25 20:00N 65°36' E 022°12'0 0.0 140 / 6 10.4
2017-Jun-25 18:00N 65°36' E 022°12'0 0.0 130 / 10 10.7
2017-Jun-25 14:00N 65°36' E 022°12'0 0.0 100 / 12 11.0
2017-Jun-25 13:00N 65°36' E 022°12'0 0.0 070 / 2 10.8
2017-Jun-25 12:00N 65°36' E 022°12'0 0.0 110 / 14 10.6
2017-Jun-25 09:00N 65°36' E 022°12'0 0.0 120 / 4 12.5
2017-Jun-25 07:00N 65°36' E 022°12'0 0.0 100 / 8 11.9
2017-Jun-25 06:00N 65°36' E 022°12'0 0.0 100 / 6 12.2
2017-Jun-25 03:00N 65°36' E 022°12'0 0.0 060 / 8 11.3
2017-Jun-25 02:00N 65°36' E 022°12'0 0.0 070 / 6 11.2
2017-Jun-25 01:00N 65°36' E 022°12'0 0.0 060 / 8 11.0
2017-Jun-25 00:00N 65°36' E 022°12'0 0.0 080 / 6 10.7
2017-Jun-24 23:00N 65°36' E 022°12'0 0.0 080 / 8 10.6
2017-Jun-24 22:00N 65°36' E 022°12'0 0.0 090 / 8 10.4
2017-Jun-24 21:00N 65°36' E 022°12'2 2.1 060 / 6 10.7
2017-Jun-24 20:08N 65°34' E 022°10'213.4
2017-Jun-24 20:00N 65°36' E 022°12'211.4 120 / 2 11.0
2017-Jun-24 19:50N 65°34' E 022°10'0 0.0
2017-Jun-24 19:20N 65°34' E 022°10'2 5.5
2017-Jun-24 19:00N 65°36' E 022°12'2 2.8 120 / 6 10.7
2017-Jun-24 18:20N 65°34' E 022°10'2 5.5
2017-Jun-24 18:00N 65°36' E 022°12'2154.4 120 / 8 10.5
2017-Jun-24 17:59N 65°34' E 022°10'0 0.0
2017-Jun-24 17:29N 65°34' E 022°10'2 3.8
2017-Jun-24 17:00N 65°36' E 022°12'2150.9 150 / 6 10.6
2017-Jun-24 16:59N 65°34' E 022°10'2 1.9
2017-Jun-24 16:00N 65°36' E 022°12'2 7.0 130 / 10 10.7
2017-Jun-24 15:44N 65°34' E 022°10'0 0.0
2017-Jun-24 15:29N 65°34' E 022°10'2 3.8
2017-Jun-24 15:00N 65°36' E 022°12'2 7.0 180 / 8 10.2
2017-Jun-24 14:44N 65°34' E 022°10'0 0.0
2017-Jun-24 14:26N 65°34' E 022°10'2 4.2
2017-Jun-24 14:00N 65°36' E 022°12'0 0.0 190 / 6 10.2
2017-Jun-24 13:00N 65°36' E 022°12'2 5.1 150 / 8 10.3
2017-Jun-24 12:38N 65°34' E 022°10'0 0.0
2017-Jun-24 12:17N 65°34' E 022°10'2 6.4
2017-Jun-24 12:00N 65°36' E 022°12'211.4 170 / 10 10.0
2017-Jun-24 11:50N 65°34' E 022°10'0 0.0
2017-Jun-24 11:23N 65°34' E 022°10'2 4.8
2017-Jun-24 11:00N 65°36' E 022°12'0 0.0 170 / 12 10.2
2017-Jun-24 10:00N 65°36' E 022°12'0 0.0 190 / 14 10.2
2017-Jun-24 09:00N 65°36' E 022°12'0 0.0 180 / 14 10.5
2017-Jun-24 07:00N 65°36' E 022°12'0 0.0 170 / 14 10.1
2017-Jun-24 06:00N 65°36' E 022°12'0 0.0 170 / 10 10.1
2017-Jun-24 03:00N 65°36' E 022°12'0 0.0 170 / 10 10.1
2017-Jun-24 00:00N 65°36' E 022°12'0 0.0 170 / 6 9.8
2017-Jun-23 23:00N 65°36' E 022°12'0 0.0 180 / 6 9.8
2017-Jun-23 21:00N 65°36' E 022°12'0 0.0 180 / 6 9.9
2017-Jun-23 20:00N 65°36' E 022°12'0 0.0 190 / 8 9.8
2017-Jun-23 19:00N 65°36' E 022°12'0 0.0 190 / 8 10.0
2017-Jun-23 18:00N 65°36' E 022°12'0 0.0 200 / 10 9.9
2017-Jun-23 17:00N 65°36' E 022°12'0 0.0 210 / 12 10.0
2017-Jun-23 16:00N 65°36' E 022°12'0 0.0 190 / 12 10.9
2017-Jun-23 15:00N 65°36' E 022°12'0 0.0 170 / 8 10.8
2017-Jun-23 14:00N 65°36' E 022°12'0 0.0 190 / 10 10.3
2017-Jun-23 13:00N 65°36' E 022°12'0 0.0 230 / 4 11.1
2017-Jun-23 12:00N 65°36' E 022°12'0 0.0 050 / 4 11.6
2017-Jun-23 09:00N 65°36' E 022°12'0 0.0 310 / 10 9.5
2017-Jun-23 08:00N 65°36' E 022°12'0 0.0 020 / 10 9.0
2017-Jun-23 06:00N 65°36' E 022°12'0 0.0 340 / 14 7.6
2017-Jun-23 05:00N 65°36' E 022°12'0 0.0 350 / 6 7.6
2017-Jun-23 03:00N 65°36' E 022°12'0 0.0 340 / 10 7.1
2017-Jun-23 00:00N 65°36' E 022°12'0 0.0 020 / 10 7.5
2017-Jun-22 21:00N 65°36' E 022°12'0 0.0 340 / 8 8.6
2017-Jun-22 20:00N 65°36' E 022°12'0 0.0 360 / 10 8.8
2017-Jun-22 19:00N 65°36' E 022°12'0 0.0 350 / 14 9.0
2017-Jun-22 18:00N 65°36' E 022°12'0 0.0 010 / 12 9.0
2017-Jun-22 16:00N 65°36' E 022°12'0 0.0 020 / 10 9.1
2017-Jun-22 15:00N 65°36' E 022°12'0 0.0 350 / 17 9.0
2017-Jun-22 14:00N 65°36' E 022°12'0 0.0 350 / 17 8.9
2017-Jun-22 13:00N 65°36' E 022°12'0 0.0 350 / 10 8.1
2017-Jun-22 12:00N 65°36' E 022°12'0 0.0 010 / 16 8.5
2017-Jun-22 11:00N 65°36' E 022°12'0 0.0 010 / 8 8.7
2017-Jun-22 10:00N 65°36' E 022°12'0 0.0 020 / 19 8.1
2017-Jun-22 09:00N 65°36' E 022°12'0 0.0 7.8
2017-Jun-22 08:00N 65°36' E 022°12'0 0.0 350 / 12 7.3
2017-Jun-22 07:00N 65°36' E 022°12'0 0.0 010 / 14 6.4
2017-Jun-22 06:00N 65°36' E 022°12'0 0.0 340 / 12 5.9
2017-Jun-22 05:00N 65°36' E 022°12'0 0.0 340 / 14 5.8
2017-Jun-22 03:00N 65°36' E 022°12'0 0.0 330 / 14 5.3
2017-Jun-22 01:00N 65°36' E 022°12'0 0.0 340 / 16 5.6
2017-Jun-22 00:00N 65°36' E 022°12'0 0.0 350 / 16 6.0
2017-Jun-21 21:00N 65°36' E 022°12'0 0.0 340 / 10 8.8
2017-Jun-21 18:00N 65°36' E 022°12'0 0.0 030 / 10 12.0
2017-Jun-21 15:00N 65°36' E 022°12'0 0.0 350 / 12 13.1
2017-Jun-21 14:00N 65°36' E 022°12'0 0.0 320 / 4 13.5
2017-Jun-21 13:00N 65°36' E 022°12'0 0.0 190 / 4 11.4
2017-Jun-21 12:00N 65°36' E 022°12'0 0.0 240 / 4 11.3
2017-Jun-21 11:00N 65°36' E 022°12'0 0.0 060 / 2 10.5
2017-Jun-21 10:00N 65°36' E 022°12'0 0.0 020 / 10 11.7
2017-Jun-21 09:00N 65°36' E 022°12'0 0.0 330 / 8 10.9
2017-Jun-21 07:00N 65°36' E 022°12'0 0.0 360 / 6 9.1
2017-Jun-21 06:00N 65°36' E 022°12'0 0.0 010 / 14 8.4
2017-Jun-21 05:00N 65°36' E 022°12'0 0.0 020 / 12 7.9
2017-Jun-21 04:00N 65°36' E 022°12'0 0.0 8.2
2017-Jun-21 03:00N 65°36' E 022°12'0 0.0 010 / 10 7.9
2017-Jun-21 01:00N 65°36' E 022°12'0 0.0 030 / 8 9.9
2017-Jun-21 00:00N 65°36' E 022°12'0 0.0 360 / 8 10.3
2017-Jun-20 23:00N 65°36' E 022°12'0 0.0 350 / 10 10.2
2017-Jun-20 21:00N 65°36' E 022°12'0 0.0 050 / 10 11.3
2017-Jun-20 20:00N 65°36' E 022°12'0 0.0 060 / 6 14.3
2017-Jun-20 18:00N 65°36' E 022°12'0 0.0 040 / 8 15.5
2017-Jun-20 15:00N 65°36' E 022°12'0 0.0 350 / 14 16.0
2017-Jun-20 13:00N 65°36' E 022°12'0 0.0 310 / 17 16.0
2017-Jun-20 12:00N 65°36' E 022°12'0 0.0 170 / 10 15.6
2017-Jun-20 10:00N 65°36' E 022°12'0 0.0 340 / 6 16.1
2017-Jun-20 09:00N 65°36' E 022°12'0 0.0 330 / 6 15.5
2017-Jun-20 08:00N 65°36' E 022°12'0 0.0 270 / 6 14.3
2017-Jun-20 06:00N 65°36' E 022°12'0 0.0 300 / 8 13.1
2017-Jun-20 05:00N 65°36' E 022°12'0 0.0 320 / 8 12.3
2017-Jun-20 04:00N 65°36' E 022°12'0 0.0 320 / 12 11.9
2017-Jun-20 03:00N 65°36' E 022°12'0 0.0 320 / 12 11.8
2017-Jun-20 02:00N 65°36' E 022°12'0 0.0 300 / 10 11.6
2017-Jun-20 01:00N 65°36' E 022°12'0 0.0 310 / 10 11.8
2017-Jun-20 00:00N 65°36' E 022°12'0 0.0 310 / 8 12.6
2017-Jun-19 23:00N 65°36' E 022°12'0 0.0 300 / 4 12.9
2017-Jun-19 22:00N 65°36' E 022°12'0 0.0 300 / 10 14.0
2017-Jun-19 21:00N 65°36' E 022°12'0 0.0 290 / 6 15.1
2017-Jun-19 20:00N 65°36' E 022°12'0 0.0 300 / 8 16.4
2017-Jun-19 19:00N 65°36' E 022°12'0 0.0 300 / 14 17.4
2017-Jun-19 18:00N 65°36' E 022°12'0 0.0 310 / 19 17.8
2017-Jun-19 17:00N 65°36' E 022°12'0 0.0 320 / 16 17.7
2017-Jun-19 16:00N 65°36' E 022°12'0 0.0 300 / 16 18.6
2017-Jun-19 15:00N 65°36' E 022°12'0 0.0 300 / 12 17.7
2017-Jun-19 14:00N 65°36' E 022°12'0 0.0 300 / 10 18.1
2017-Jun-19 13:00N 65°36' E 022°12'0 0.0 300 / 17 17.0
2017-Jun-19 12:00N 65°36' E 022°12'0 0.0 300 / 12 17.8
2017-Jun-19 11:00N 65°36' E 022°12'0 0.0 270 / 4 15.4
2017-Jun-19 10:00N 65°36' E 022°12'0 0.0 330 / 14 16.7
2017-Jun-19 09:00N 65°36' E 022°12'0 0.0 310 / 14 16.3
2017-Jun-19 08:00N 65°36' E 022°12'0 0.0 310 / 14 15.6
2017-Jun-19 07:00N 65°36' E 022°12'0 0.0 300 / 16 14.6
2017-Jun-18 22:00N 65°36' E 022°12'0 0.0 300 / 21 14.5
2017-Jun-18 21:00N 65°36' E 022°12'0 0.0 300 / 14 15.6
2017-Jun-18 20:00N 65°36' E 022°12'0 0.0 300 / 14 16.4
2017-Jun-18 19:00N 65°36' E 022°12'0 0.0 300 / 17 17.7
2017-Jun-18 18:00N 65°36' E 022°12'0 0.0 300 / 8 18.0
2017-Jun-18 17:00N 65°36' E 022°12'0 0.0 310 / 17 17.8
2017-Jun-18 16:00N 65°36' E 022°12'0 0.0 300 / 14 18.4
2017-Jun-18 15:00N 65°36' E 022°12'0 0.0 310 / 12 18.9
2017-Jun-18 14:00N 65°36' E 022°12'0 0.0 320 / 14 18.5
2017-Jun-18 13:00N 65°36' E 022°12'0 0.0 310 / 16 18.0
2017-Jun-18 12:00N 65°36' E 022°12'0 0.0 310 / 16 17.7
2017-Jun-18 11:00N 65°36' E 022°12'0 0.0 320 / 19 16.4
2017-Jun-18 10:00N 65°36' E 022°12'0 0.0 300 / 8 16.1
2017-Jun-18 09:00N 65°36' E 022°12'0 0.0 290 / 14 16.1
2017-Jun-18 08:00N 65°36' E 022°12'0 0.0 310 / 10 15.7
2017-Jun-18 07:00N 65°36' E 022°12'0 0.0 300 / 16 14.8
2017-Jun-18 06:00N 65°36' E 022°12'0 0.0 280 / 8 13.0
2017-Jun-18 05:00N 65°36' E 022°12'0 0.0 270 / 6 12.7
2017-Jun-18 04:00N 65°36' E 022°12'0 0.0 300 / 14 13.1
2017-Jun-18 03:00N 65°36' E 022°12'0 0.0 270 / 10 13.9
2017-Jun-18 02:00N 65°36' E 022°12'0 0.0 230 / 4 14.6
2017-Jun-18 01:00N 65°36' E 022°12'0 0.0 250 / 6 14.7
2017-Jun-18 00:00N 65°36' E 022°12'0 0.0 220 / 6 14.8
2017-Jun-17 23:00N 65°36' E 022°12'0 0.0 220 / 6 15.1
2017-Jun-17 22:00N 65°36' E 022°12'0 0.0 210 / 8 15.0
2017-Jun-17 21:00N 65°36' E 022°12'0 0.0 190 / 8 14.6
2017-Jun-17 20:00N 65°36' E 022°12'0 0.0 180 / 6 15.8
2017-Jun-17 19:00N 65°36' E 022°12'0 0.0 200 / 8 16.2
2017-Jun-17 18:00N 65°36' E 022°12'0 0.0 290 / 4 16.6
2017-Jun-17 17:00N 65°36' E 022°12'0 0.0 330 / 6 16.3
2017-Jun-17 16:00N 65°36' E 022°12'2 8.4 320 / 4 15.9
2017-Jun-17 15:46N 65°34' E 022°10'2 2.4
2017-Jun-17 15:00N 65°36' E 022°12'0 0.0 270 / 6 16.0
2017-Jun-17 14:00N 65°36' E 022°12'0 0.0 210 / 10 16.2
2017-Jun-17 13:00N 65°36' E 022°12'0 0.0 190 / 10 16.0
2017-Jun-17 12:00N 65°36' E 022°12'0 0.0 190 / 14 17.0
2017-Jun-17 11:00N 65°36' E 022°12'0 0.0 160 / 10 19.5
2017-Jun-17 10:00N 65°36' E 022°12'0 0.0 170 / 8 19.3
2017-Jun-17 09:00N 65°36' E 022°12'2 4.1 180 / 4 19.4
2017-Jun-17 08:32N 65°34' E 022°10'0 0.0
2017-Jun-17 08:08N 65°34' E 022°10'0 0.0
2017-Jun-17 07:53N 65°34' E 022°10'0 0.0
2017-Jun-17 07:26N 65°34' E 022°10'0 0.0
2017-Jun-17 06:20N 65°34' E 022°10'0 0.0
2017-Jun-17 05:56N 65°34' E 022°10'0 0.0
2017-Jun-17 05:26N 65°34' E 022°10'0 0.0
2017-Jun-17 04:59N 65°34' E 022°10'0 0.0
2017-Jun-17 04:26N 65°34' E 022°10'0 0.0
2017-Jun-17 02:14N 65°34' E 022°10'0 0.0
2017-Jun-17 01:59N 65°34' E 022°10'0 0.0
2017-Jun-17 01:29N 65°34' E 022°10'0 0.0
2017-Jun-17 00:50N 65°34' E 022°10'0 0.0
2017-Jun-17 00:20N 65°34' E 022°10'0 0.0
2017-Jun-16 23:59N 65°34' E 022°10'0 0.0
2017-Jun-16 23:29N 65°34' E 022°10'2 3.7
2017-Jun-16 23:00N 65°36' E 022°12'2948.5 160 / 2 15.9
2017-Jun-16 22:59N 65°34' E 022°10'0 0.0
2017-Jun-16 22:29N 65°34' E 022°10'2 3.7
2017-Jun-16 22:00N 65°36' E 022°12'2 3.1 340 / 4 15.5
2017-Jun-16 21:23N 65°34' E 022°10'2 4.6
2017-Jun-16 21:00N 65°36' E 022°12'0 0.0 180 / 8 15.7
2017-Jun-16 20:00N 65°36' E 022°12'2 2.8 180 / 8 16.2
2017-Jun-16 19:20N 65°34' E 022°10'2 5.3
2017-Jun-16 19:00N 65°36' E 022°12'0 0.0 180 / 10 16.3
2017-Jun-16 18:00N 65°36' E 022°12'2 6.1 180 / 10 17.1
2017-Jun-16 17:41N 65°34' E 022°10'0 0.0
2017-Jun-16 17:26N 65°34' E 022°10'2 4.1
2017-Jun-16 17:00N 65°36' E 022°12'2830.0 170 / 8 17.7
2017-Jun-16 16:59N 65°34' E 022°10'2 1.8
2017-Jun-16 16:00N 65°36' E 022°12'0 0.0 170 / 10 16.6
2017-Jun-16 15:00N 65°36' E 022°12'0 0.0 190 / 17 15.5
2017-Jun-16 14:00N 65°36' E 022°12'0 0.0 190 / 16 17.0
2017-Jun-16 13:00N 65°36' E 022°12'0 0.0 180 / 14 16.7
2017-Jun-16 12:00N 65°36' E 022°12'0 0.0 180 / 16 17.5
2017-Jun-16 11:00N 65°36' E 022°12'0 0.0 170 / 12 17.4
2017-Jun-16 10:00N 65°36' E 022°12'0 0.0 170 / 12 17.4
2017-Jun-16 09:00N 65°36' E 022°12'0 0.0 230 / 2 18.9
2017-Jun-16 06:00N 65°36' E 022°12'   300 / 6 16.3

Dump ship's entire track history